createdAt,value
2018-01-18T00:01:49.625Z,97828.66
2018-01-18T00:04:17.147Z,97830.77
2018-01-18T00:06:44.674Z,97841.92
2018-01-18T00:09:12.206Z,97828.42
2018-01-18T00:11:39.790Z,97851.25
2018-01-18T00:14:08.216Z,97867.56
2018-01-18T00:16:35.746Z,97863.71
2018-01-18T00:19:03.309Z,97874.09
2018-01-18T00:21:30.910Z,97866.80
2018-01-18T00:23:58.434Z,97883.09
2018-01-18T00:26:26.026Z,97883.81
2018-01-18T00:28:53.555Z,97865.64
2018-01-18T00:31:21.113Z,97878.15
2018-01-18T00:33:48.698Z,97874.06
2018-01-18T00:36:16.274Z,97860.58
2018-01-18T00:38:43.797Z,97852.78
2018-01-18T00:41:11.322Z,97848.52
2018-01-18T00:43:38.858Z,97858.30
2018-01-18T00:46:06.381Z,97833.06
2018-01-18T00:48:33.917Z,97844.13
2018-01-18T00:51:01.499Z,97833.33
2018-01-18T00:53:29.126Z,97848.66
2018-01-18T00:55:56.653Z,97845.81
2018-01-18T00:58:24.173Z,97836.00
2018-01-18T01:00:51.711Z,97829.25
2018-01-18T01:03:19.234Z,97841.45
2018-01-18T01:05:46.765Z,97838.98
2018-01-18T01:08:14.358Z,97842.24
2018-01-18T01:10:41.925Z,97809.88
2018-01-18T01:13:09.516Z,97850.78
2018-01-18T01:15:37.094Z,97846.59
2018-01-18T01:18:04.634Z,97852.16
2018-01-18T01:20:32.218Z,97848.25
2018-01-18T01:22:59.750Z,97870.42
2018-01-18T01:25:27.275Z,97856.93
2018-01-18T01:27:54.874Z,97850.78
2018-01-18T01:30:22.459Z,97865.46
2018-01-18T01:32:49.984Z,97872.16
2018-01-18T01:35:17.517Z,97865.10
2018-01-18T01:37:45.099Z,97862.70
2018-01-18T01:40:12.634Z,97859.49
2018-01-18T01:42:40.190Z,97884.53
2018-01-18T01:45:07.789Z,97892.43
2018-01-18T01:47:35.388Z,97893.86
2018-01-18T01:50:02.918Z,97914.36
2018-01-18T01:52:30.453Z,97918.29
2018-01-18T01:54:58.014Z,97914.46
2018-01-18T01:57:25.550Z,97919.73
2018-01-18T01:59:53.074Z,97914.84
2018-01-18T02:02:20.590Z,97918.30
2018-01-18T02:04:48.122Z,97915.11
2018-01-18T02:07:15.650Z,97912.22
2018-01-18T02:09:43.192Z,97915.02
2018-01-18T02:12:10.777Z,97932.08
2018-01-18T02:14:38.382Z,97943.54
2018-01-18T02:17:05.967Z,97943.39
2018-01-18T02:19:33.508Z,97936.92
2018-01-18T02:22:01.046Z,97969.70
2018-01-18T02:24:28.585Z,97983.73
2018-01-18T02:26:56.172Z,97973.83
2018-01-18T02:29:23.686Z,97990.94
2018-01-18T02:31:51.323Z,97989.61
2018-01-18T02:34:18.850Z,97999.30
2018-01-18T02:36:46.381Z,97995.08
2018-01-18T02:39:13.975Z,98001.43
2018-01-18T02:41:41.510Z,97995.78
2018-01-18T02:44:09.064Z,98006.75
2018-01-18T02:46:36.658Z,98010.47
2018-01-18T02:49:04.274Z,98015.29
2018-01-18T02:51:31.797Z,98028.77
2018-01-18T02:53:59.382Z,98003.95
2018-01-18T02:56:26.977Z,98014.14
2018-01-18T02:58:54.599Z,98037.73
2018-01-18T03:01:22.194Z,98032.45
2018-01-18T03:03:49.783Z,98039.00
2018-01-18T03:06:17.356Z,98049.47
2018-01-18T03:08:44.942Z,98055.67
2018-01-18T03:11:12.466Z,98058.86
2018-01-18T03:13:40.007Z,98046.12
2018-01-18T03:16:07.539Z,98049.87
2018-01-18T03:18:35.081Z,98032.36
2018-01-18T03:21:02.612Z,98001.14
2018-01-18T03:23:30.242Z,98029.46
2018-01-18T03:25:57.767Z,98021.28
2018-01-18T03:28:25.351Z,98030.05
2018-01-18T03:30:52.943Z,98039.77
2018-01-18T03:33:20.465Z,98044.64
2018-01-18T03:35:48.003Z,98039.32
2018-01-18T03:38:15.586Z,98057.69
2018-01-18T03:40:43.158Z,98072.28
2018-01-18T03:43:10.686Z,98091.41
2018-01-18T03:45:38.209Z,98090.80
2018-01-18T03:48:05.746Z,98072.96
2018-01-18T03:50:33.269Z,98116.89
2018-01-18T03:53:00.802Z,98107.06
2018-01-18T03:55:28.330Z,98130.06
2018-01-18T03:57:55.974Z,98137.58
2018-01-18T04:00:23.511Z,98142.41
2018-01-18T04:02:51.033Z,98148.97
2018-01-18T04:05:18.626Z,98154.16
2018-01-18T04:07:46.154Z,98152.63
2018-01-18T04:10:13.749Z,98145.25
2018-01-18T04:12:41.282Z,98163.30
2018-01-18T04:15:08.865Z,98162.06
2018-01-18T04:17:36.386Z,98191.51
2018-01-18T04:20:03.922Z,98197.27
2018-01-18T04:22:31.514Z,98200.83
2018-01-18T04:24:59.098Z,98210.70
2018-01-18T04:27:26.690Z,98221.27
2018-01-18T04:29:54.210Z,98210.67
2018-01-18T04:32:21.736Z,98217.77
2018-01-18T04:34:49.326Z,98227.70
2018-01-18T04:37:16.907Z,98237.83
2018-01-18T04:39:44.567Z,98241.64
2018-01-18T04:42:12.094Z,98242.98
2018-01-18T04:44:39.621Z,98267.50
2018-01-18T04:47:07.153Z,98272.98
2018-01-18T04:49:34.686Z,98260.30
2018-01-18T04:52:02.225Z,98283.01
2018-01-18T04:54:29.754Z,98269.48
2018-01-18T04:56:57.327Z,98295.23
2018-01-18T04:59:24.921Z,98298.36
2018-01-18T05:01:52.441Z,98302.48
2018-01-18T05:04:20.035Z,98320.22
2018-01-18T05:06:47.562Z,98332.84
2018-01-18T05:09:15.158Z,98355.26
2018-01-18T05:11:42.690Z,98346.55
2018-01-18T05:14:10.316Z,98354.50
2018-01-18T05:16:37.906Z,98356.21
2018-01-18T05:19:05.495Z,98341.57
2018-01-18T05:21:33.031Z,98355.56
2018-01-18T05:24:00.562Z,98354.16
2018-01-18T05:26:28.167Z,98358.78
2018-01-18T05:28:55.698Z,98351.93
2018-01-18T05:31:23.222Z,98365.67
2018-01-18T05:33:50.758Z,98364.27
2018-01-18T05:36:18.286Z,98377.52
2018-01-18T05:38:45.878Z,98372.48
2018-01-18T05:41:13.413Z,98375.20
2018-01-18T05:43:41.052Z,98402.60
2018-01-18T05:46:08.584Z,98378.42
2018-01-18T05:48:36.174Z,98402.11
2018-01-18T05:51:03.714Z,98410.70
2018-01-18T05:53:31.313Z,98401.36
2018-01-18T05:55:58.907Z,98420.31
2018-01-18T05:58:26.438Z,98411.64
2018-01-18T06:00:54.076Z,98432.84
2018-01-18T06:03:21.634Z,98432.99
2018-01-18T06:05:49.222Z,98434.16
2018-01-18T06:08:16.753Z,98466.45
2018-01-18T06:10:44.274Z,98445.25
2018-01-18T06:13:11.879Z,98444.31
2018-01-18T06:15:39.410Z,98467.88
2018-01-18T06:18:07.050Z,98486.77
2018-01-18T06:20:34.579Z,98483.75
2018-01-18T06:23:02.111Z,98475.23
2018-01-18T06:25:29.645Z,98493.02
2018-01-18T06:27:57.231Z,98506.76
2018-01-18T06:30:24.765Z,98507.30
2018-01-18T06:32:52.290Z,98495.83
2018-01-18T06:35:19.921Z,98527.82
2018-01-18T06:37:47.450Z,98519.16
2018-01-18T06:40:15.048Z,98535.06
2018-01-18T06:42:42.590Z,98551.72
2018-01-18T06:45:10.122Z,98551.45
2018-01-18T06:47:37.662Z,98562.82
2018-01-18T06:50:05.266Z,98566.91
2018-01-18T06:52:32.837Z,98578.65
2018-01-18T06:55:00.362Z,98585.77
2018-01-18T06:57:27.894Z,98610.86
2018-01-18T06:59:55.552Z,98612.75
2018-01-18T07:02:23.086Z,98625.09
2018-01-18T07:04:50.631Z,98639.18
2018-01-18T07:07:18.162Z,98619.98
2018-01-18T07:09:45.931Z,98645.09
2018-01-18T07:12:13.462Z,98652.49
2018-01-18T07:14:40.990Z,98648.80
2018-01-18T07:17:08.579Z,98643.31
2018-01-18T07:19:36.163Z,98648.57
2018-01-18T07:22:03.705Z,98652.45
2018-01-18T07:24:31.238Z,98648.09
2018-01-18T07:26:58.818Z,98653.56
2018-01-18T07:29:26.406Z,98661.94
2018-01-18T07:31:53.994Z,98654.52
2018-01-18T07:34:21.527Z,98643.34
2018-01-18T07:36:49.054Z,98659.14
2018-01-18T07:39:16.642Z,98669.76
2018-01-18T07:41:44.161Z,98659.19
2018-01-18T07:44:11.738Z,98678.25
2018-01-18T07:46:39.322Z,98701.64
2018-01-18T07:49:06.850Z,98682.02
2018-01-18T07:51:34.445Z,98684.56
2018-01-18T07:54:02.031Z,98683.20
2018-01-18T07:56:29.570Z,98684.86
2018-01-18T07:58:57.098Z,98706.55
2018-01-18T08:01:24.674Z,98694.27
2018-01-18T08:03:57.883Z,98698.02
2018-01-18T08:06:25.515Z,98729.91
2018-01-18T08:08:53.102Z,98732.48
2018-01-18T08:11:20.629Z,98725.96
2018-01-18T08:13:48.162Z,98742.31
2018-01-18T08:16:15.685Z,98741.08
2018-01-18T08:18:43.278Z,98741.16
2018-01-18T08:21:10.858Z,98751.89
2018-01-18T08:23:38.434Z,98757.94
2018-01-18T08:26:06.018Z,98768.92
2018-01-18T08:28:33.610Z,98784.88
2018-01-18T08:31:01.154Z,98782.58
2018-01-18T08:33:28.770Z,98792.06
2018-01-18T08:35:56.311Z,98786.92
2018-01-18T08:38:23.851Z,98810.45
2018-01-18T08:40:51.425Z,98804.31
2018-01-18T08:43:18.953Z,98808.45
2018-01-18T08:45:46.482Z,98813.62
2018-01-18T08:48:14.022Z,98825.09
2018-01-18T08:50:41.618Z,98834.83
2018-01-18T08:53:09.161Z,98856.75
2018-01-18T08:55:36.755Z,98837.80
2018-01-18T08:58:04.413Z,98848.61
2018-01-18T09:00:31.942Z,98858.58
2018-01-18T09:02:59.480Z,98858.06
2018-01-18T09:05:27.075Z,98840.52
2018-01-18T09:07:54.601Z,98846.69
2018-01-18T09:10:22.138Z,98857.67
2018-01-18T09:12:49.674Z,98809.62
2018-01-18T09:15:17.250Z,98861.66
2018-01-18T09:17:44.844Z,98869.41
2018-01-18T09:20:12.378Z,98881.95
2018-01-18T09:22:39.970Z,98886.69
2018-01-18T09:25:07.498Z,98891.41
2018-01-18T09:27:35.130Z,98903.79
2018-01-18T09:30:02.660Z,98902.14
2018-01-18T09:32:30.190Z,98893.94
2018-01-18T09:34:57.794Z,98905.02
2018-01-18T09:37:25.324Z,98907.06
2018-01-18T09:39:52.909Z,98911.80
2018-01-18T09:42:20.501Z,98914.59
2018-01-18T09:44:48.058Z,98913.39
2018-01-18T09:47:15.654Z,98924.63
2018-01-18T09:49:43.182Z,98923.53
2018-01-18T09:52:10.769Z,98931.72
2018-01-18T09:54:38.298Z,98917.41
2018-01-18T09:57:05.931Z,98924.48
2018-01-18T09:59:33.470Z,98920.73
2018-01-18T10:02:01.007Z,98941.98
2018-01-18T10:04:28.549Z,98945.28
2018-01-18T10:06:56.074Z,98957.44
2018-01-18T10:09:23.610Z,98938.35
2018-01-18T10:11:51.150Z,98954.09
2018-01-18T10:14:18.730Z,98947.45
2018-01-18T10:16:46.315Z,98935.27
2018-01-18T10:19:13.846Z,98950.87
2018-01-18T10:21:41.390Z,98944.55
2018-01-18T10:24:08.926Z,98963.87
2018-01-18T10:26:36.462Z,98933.82
2018-01-18T10:29:04.051Z,98961.36
2018-01-18T10:31:31.665Z,98956.17
2018-01-18T10:33:59.251Z,98958.00
2018-01-18T10:36:26.782Z,98972.58
2018-01-18T10:38:54.444Z,98961.11
2018-01-18T10:41:21.976Z,98968.28
2018-01-18T10:43:49.514Z,98965.13
2018-01-18T10:46:17.046Z,98992.61
2018-01-18T10:48:44.650Z,98978.56
2018-01-18T10:51:12.251Z,98986.95
2018-01-18T10:53:39.777Z,98990.55
2018-01-18T10:56:07.313Z,98998.27
2018-01-18T10:58:34.894Z,98995.04
2018-01-18T11:01:02.495Z,99014.02
2018-01-18T11:03:30.082Z,99009.03
2018-01-18T11:05:57.670Z,99005.09
2018-01-18T11:08:25.282Z,99023.75
2018-01-18T11:10:52.810Z,99024.95
2018-01-18T11:13:20.350Z,99026.59
2018-01-18T11:15:47.947Z,99035.11
2018-01-18T11:18:15.551Z,99012.21
2018-01-18T11:20:43.087Z,99027.86
2018-01-18T11:23:10.662Z,99024.70
2018-01-18T11:25:38.247Z,99025.78
2018-01-18T11:28:08.258Z,99058.11
2018-01-18T11:30:35.902Z,99044.21
2018-01-18T11:33:03.430Z,99039.65
2018-01-18T11:35:30.969Z,99026.27
2018-01-18T11:37:58.563Z,99039.34
2018-01-18T11:40:26.225Z,99021.71
2018-01-18T11:42:53.751Z,99044.60
2018-01-18T11:45:21.288Z,99047.27
2018-01-18T11:47:48.889Z,99053.70
2018-01-18T11:50:16.421Z,99055.66
2018-01-18T11:52:44.020Z,99038.50
2018-01-18T11:55:11.602Z,99056.91
2018-01-18T11:57:39.194Z,99055.89
2018-01-18T12:00:06.759Z,99061.54
2018-01-18T12:02:34.286Z,99058.13
2018-01-18T12:05:01.921Z,99061.88
2018-01-18T12:07:29.517Z,99064.92
2018-01-18T12:09:57.059Z,99069.64
2018-01-18T12:12:24.595Z,99076.08
2018-01-18T12:14:52.129Z,99086.27
2018-01-18T12:17:19.702Z,99088.34
2018-01-18T12:19:47.234Z,99103.09
2018-01-18T12:22:14.763Z,99122.08
2018-01-18T12:24:42.390Z,99112.77
2018-01-18T12:27:09.918Z,99118.03
2018-01-18T12:29:37.519Z,99117.41
2018-01-18T12:32:05.110Z,99128.34
2018-01-18T12:34:32.749Z,99130.81
2018-01-18T12:37:00.342Z,99123.55
2018-01-18T12:39:27.877Z,99142.98
2018-01-18T12:41:55.464Z,99143.43
2018-01-18T12:44:22.999Z,99159.88
2018-01-18T12:46:50.635Z,99152.44
2018-01-18T12:49:18.161Z,99151.36
2018-01-18T12:51:45.799Z,99149.66
2018-01-18T12:54:13.321Z,99162.87
2018-01-18T12:56:40.854Z,99157.80
2018-01-18T12:59:08.390Z,99176.51
2018-01-18T13:01:35.990Z,99176.61
2018-01-18T13:04:03.594Z,99178.53
2018-01-18T13:06:31.122Z,99166.42
2018-01-18T13:08:58.694Z,99175.11
2018-01-18T13:11:26.224Z,99184.79
2018-01-18T13:13:53.801Z,99199.44
2018-01-18T13:16:21.343Z,99206.39
2018-01-18T13:18:48.874Z,99223.92
2018-01-18T13:21:16.473Z,99216.48
2018-01-18T13:23:44.018Z,99228.13
2018-01-18T13:26:11.651Z,99236.01
2018-01-18T13:28:39.246Z,99231.89
2018-01-18T13:31:06.838Z,99241.80
2018-01-18T13:33:34.434Z,99252.79
2018-01-18T13:36:02.041Z,99252.71
2018-01-18T13:38:29.643Z,99243.85
2018-01-18T13:40:57.210Z,99266.63
2018-01-18T13:43:24.790Z,99260.69
2018-01-18T13:45:52.317Z,99254.48
2018-01-18T13:48:19.854Z,99269.36
2018-01-18T13:50:47.387Z,99282.27
2018-01-18T13:53:14.921Z,99278.80
2018-01-18T13:55:42.462Z,99280.41
2018-01-18T13:58:10.004Z,99287.59
2018-01-18T14:00:37.574Z,99287.56
2018-01-18T14:03:05.175Z,99292.89
2018-01-18T14:05:32.706Z,99303.52
2018-01-18T14:08:00.245Z,99316.83
2018-01-18T14:10:27.770Z,99319.16
2018-01-18T14:12:55.310Z,99326.95
2018-01-18T14:15:22.924Z,99315.17
2018-01-18T14:17:50.514Z,99329.04
2018-01-18T14:20:18.102Z,99348.73
2018-01-18T14:22:45.686Z,99355.33
2018-01-18T14:25:13.221Z,99363.67
2018-01-18T14:27:40.758Z,99349.88
2018-01-18T14:30:08.362Z,99372.70
2018-01-18T14:32:35.947Z,99381.55
2018-01-18T14:35:03.516Z,99392.42
2018-01-18T14:37:31.110Z,99394.34
2018-01-18T14:39:58.658Z,99392.61
2018-01-18T14:42:26.189Z,99387.83
2018-01-18T14:44:53.778Z,99406.87
2018-01-18T14:47:21.370Z,99396.53
2018-01-18T14:49:48.916Z,99390.71
2018-01-18T14:52:16.546Z,99399.30
2018-01-18T14:54:44.164Z,99394.47
2018-01-18T14:57:11.704Z,99389.55
2018-01-18T14:59:39.249Z,99400.56
2018-01-18T15:02:06.769Z,99414.18
2018-01-18T15:04:34.309Z,99421.41
2018-01-18T15:07:01.837Z,99423.84
2018-01-18T15:09:30.241Z,99434.28
2018-01-18T15:11:57.761Z,99433.86
2018-01-18T15:14:25.345Z,99436.70
2018-01-18T15:16:52.882Z,99439.36
2018-01-18T15:19:20.413Z,99447.69
2018-01-18T15:21:47.958Z,99438.80
2018-01-18T15:24:15.485Z,99443.80
2018-01-18T15:26:43.063Z,99442.50
2018-01-18T15:29:10.658Z,99461.07
2018-01-18T15:31:38.260Z,99460.53
2018-01-18T15:34:05.854Z,99461.73
2018-01-18T15:36:33.436Z,99467.83
2018-01-18T15:39:00.983Z,99469.66
2018-01-18T15:41:28.591Z,99472.38
2018-01-18T15:43:56.166Z,99477.08
2018-01-18T15:46:23.755Z,99479.60
2018-01-18T15:48:51.349Z,99478.14
2018-01-18T15:51:18.947Z,99478.08
2018-01-18T15:53:46.482Z,99481.00
2018-01-18T15:56:14.022Z,99479.47
2018-01-18T15:58:41.558Z,99482.39
2018-01-18T16:01:09.129Z,99490.80
2018-01-18T16:03:36.664Z,99495.74
2018-01-18T16:06:04.194Z,99491.00
2018-01-18T16:08:31.786Z,99497.02
2018-01-18T16:10:59.318Z,99512.59
2018-01-18T16:13:26.863Z,99495.88
2018-01-18T16:15:54.447Z,99517.02
2018-01-18T16:18:22.022Z,99510.22
2018-01-18T16:20:49.550Z,99517.08
2018-01-18T16:23:17.077Z,99516.66
2018-01-18T16:25:44.682Z,99533.44
2018-01-18T16:28:12.219Z,99540.13
2018-01-18T16:30:39.759Z,99556.07
2018-01-18T16:33:07.298Z,99542.73
2018-01-18T16:35:34.837Z,99555.80
2018-01-18T16:38:02.438Z,99564.40
2018-01-18T16:40:29.970Z,99566.98
2018-01-18T16:42:57.514Z,99565.72
2018-01-18T16:45:25.106Z,99576.15
2018-01-18T16:47:52.677Z,99586.29
2018-01-18T16:50:20.278Z,99590.20
2018-01-18T16:52:47.874Z,99595.73
2018-01-18T16:55:15.421Z,99602.27
2018-01-18T17:00:09.987Z,99622.61
2018-01-18T17:02:37.522Z,99628.00
2018-01-18T17:05:05.049Z,99636.46
2018-01-18T17:07:32.597Z,99640.09
2018-01-18T17:10:00.190Z,99652.92
2018-01-18T17:12:27.795Z,99650.63
2018-01-18T17:14:55.387Z,99658.13
2018-01-18T17:17:22.969Z,99662.51
2018-01-18T17:19:50.559Z,99659.92
2018-01-18T17:22:18.131Z,99657.48
2018-01-18T17:24:45.730Z,99658.23
2018-01-18T17:27:13.257Z,99658.49
2018-01-18T17:29:40.810Z,99662.16
2018-01-18T17:32:08.390Z,99656.13
2018-01-18T17:34:35.966Z,99653.99
2018-01-18T17:37:03.499Z,99655.77
2018-01-18T17:39:31.045Z,99658.66
2018-01-18T17:41:58.594Z,99662.99
2018-01-18T17:44:26.127Z,99658.97
2018-01-18T17:46:53.674Z,99664.81
2018-01-18T17:49:21.202Z,99646.19
2018-01-18T17:51:48.778Z,99665.42
2018-01-18T17:54:16.371Z,99656.55
2018-01-18T17:56:43.910Z,99669.15
2018-01-18T17:59:11.461Z,99668.02
2018-01-18T18:01:39.050Z,99659.82
2018-01-18T18:04:06.589Z,99660.63
2018-01-18T18:06:34.124Z,99665.39
2018-01-18T18:09:01.732Z,99663.31
2018-01-18T18:11:29.262Z,99665.39
2018-01-18T18:13:56.796Z,99658.97
2018-01-18T18:16:24.329Z,99655.05
2018-01-18T18:18:51.870Z,99649.87
2018-01-18T18:21:19.401Z,99655.19
2018-01-18T18:23:46.935Z,99654.20
2018-01-18T18:26:14.521Z,99664.77
2018-01-18T18:28:42.142Z,99656.58
2018-01-18T18:31:09.660Z,99661.86
2018-01-18T18:33:37.256Z,99668.59
2018-01-18T18:36:04.786Z,99671.94
2018-01-18T18:38:32.466Z,99675.56
2018-01-18T18:41:00.034Z,99674.91
2018-01-18T18:43:27.571Z,99684.45
2018-01-18T18:45:55.182Z,99680.16
2018-01-18T18:48:22.718Z,99682.59
2018-01-18T18:50:50.326Z,99680.64
2018-01-18T18:53:17.866Z,99675.30
2018-01-18T18:55:45.408Z,99676.07
2018-01-18T18:58:13.006Z,99679.11
2018-01-18T19:00:40.546Z,99668.99
2018-01-18T19:03:08.126Z,99666.41
2018-01-18T19:05:35.662Z,99672.10
2018-01-18T19:08:03.197Z,99670.53
2018-01-18T19:10:30.807Z,99658.82
2018-01-18T19:12:58.347Z,99663.05
2018-01-18T19:15:25.890Z,99666.63
2018-01-18T19:17:53.431Z,99678.55
2018-01-18T19:20:21.074Z,99679.50
2018-01-18T19:22:48.618Z,99683.84
2018-01-18T19:25:16.154Z,99697.17
2018-01-18T19:27:43.759Z,99693.86
2018-01-18T19:30:11.302Z,99687.91
2018-01-18T19:32:38.890Z,99688.63
2018-01-18T19:35:06.464Z,99685.34
2018-01-18T19:37:34.082Z,99685.67
2018-01-18T19:40:01.689Z,99682.47
2018-01-18T19:42:29.228Z,99681.13
2018-01-18T19:44:56.774Z,99675.89
2018-01-18T19:47:24.362Z,99686.16
2018-01-18T19:49:52.781Z,99686.14
2018-01-18T19:52:20.320Z,99688.02
2018-01-18T19:54:47.897Z,99684.58
2018-01-18T19:57:15.516Z,99672.52
2018-01-18T19:59:43.110Z,99662.56
2018-01-18T20:02:10.726Z,99659.53
2018-01-18T20:04:38.258Z,99672.86
2018-01-18T20:07:05.829Z,99668.77
2018-01-18T20:09:33.362Z,99665.33
2018-01-18T20:12:00.958Z,99660.99
2018-01-18T20:14:28.497Z,99659.47
2018-01-18T20:16:56.030Z,99658.67
2018-01-18T20:19:23.654Z,99646.98
2018-01-18T20:21:51.189Z,99654.52
2018-01-18T20:24:18.846Z,99658.63
2018-01-18T20:26:46.437Z,99645.30
2018-01-18T20:29:13.966Z,99657.52
2018-01-18T20:31:41.563Z,99648.51
2018-01-18T20:34:09.162Z,99645.92
2018-01-18T20:36:36.710Z,99639.23
2018-01-18T20:39:04.326Z,99634.90
2018-01-18T20:41:31.933Z,99639.84
2018-01-18T20:43:59.531Z,99642.24
2018-01-18T20:46:27.115Z,99637.23
2018-01-18T20:48:54.658Z,99639.08
2018-01-18T20:51:22.185Z,99639.08
2018-01-18T20:53:49.796Z,99633.30
2018-01-18T20:56:17.329Z,99633.03
2018-01-18T20:58:44.905Z,99630.03
2018-01-18T21:01:12.503Z,99631.75
2018-01-18T21:03:40.098Z,99630.30
2018-01-18T21:06:07.637Z,99634.96
2018-01-18T21:08:35.173Z,99629.78
2018-01-18T21:11:02.713Z,99632.11
2018-01-18T21:13:30.245Z,99629.91
2018-01-18T21:15:57.830Z,99639.09
2018-01-18T21:18:25.371Z,99634.13
2018-01-18T21:20:52.929Z,99639.69
2018-01-18T21:23:20.474Z,99633.02
2018-01-18T21:25:48.007Z,99627.89
2018-01-18T21:28:15.602Z,99628.78
2018-01-18T21:30:43.134Z,99631.59
2018-01-18T21:33:10.786Z,99636.42
2018-01-18T21:35:38.390Z,99630.53
2018-01-18T21:38:05.926Z,99625.17
2018-01-18T21:40:33.466Z,99616.47
2018-01-18T21:43:01.069Z,99610.05
2018-01-18T21:45:28.610Z,99608.86
2018-01-18T21:47:56.146Z,99597.30
2018-01-18T21:50:23.726Z,99601.50
2018-01-18T21:52:51.266Z,99606.50
2018-01-18T21:55:18.813Z,99604.87
2018-01-18T21:57:46.354Z,99601.69
2018-01-18T22:00:14.006Z,99599.97
2018-01-18T22:02:41.545Z,99606.20
2018-01-18T22:05:09.078Z,99608.43
2018-01-18T22:07:36.649Z,99607.36
2018-01-18T22:10:04.182Z,99599.37
2018-01-18T22:12:31.709Z,99602.00
2018-01-18T22:14:59.252Z,99596.71
2018-01-18T22:17:26.781Z,99595.73
2018-01-18T22:19:54.317Z,99600.51
2018-01-18T22:22:21.854Z,99601.52
2018-01-18T22:24:49.439Z,99609.73
2018-01-18T22:27:16.969Z,99606.66
2018-01-18T22:29:44.494Z,99605.34
2018-01-18T22:32:12.031Z,99603.09
2018-01-18T22:34:39.558Z,99605.35
2018-01-18T22:37:07.093Z,99595.48
2018-01-18T22:39:34.622Z,99597.14
2018-01-18T22:42:02.219Z,99590.66
2018-01-18T22:44:29.753Z,99590.28
2018-01-18T22:46:57.289Z,99584.05
2018-01-18T22:49:24.834Z,99579.55
2018-01-18T22:51:52.378Z,99572.86
2018-01-18T22:54:19.926Z,99572.58
2018-01-18T22:56:47.458Z,99577.36
2018-01-18T22:59:15.030Z,99591.99
2018-01-18T23:01:42.579Z,99604.16
2018-01-18T23:04:10.123Z,99606.84
2018-01-18T23:06:37.666Z,99592.33
2018-01-18T23:09:05.251Z,99594.49
2018-01-18T23:11:32.811Z,99583.88
2018-01-18T23:14:00.355Z,99579.13
2018-01-18T23:16:27.969Z,99571.28
2018-01-18T23:18:55.497Z,99584.66
2018-01-18T23:21:23.034Z,99582.27
2018-01-18T23:23:50.591Z,99575.16
2018-01-18T23:26:18.127Z,99576.15
2018-01-18T23:28:45.736Z,99565.33
2018-01-18T23:31:13.282Z,99569.30
2018-01-18T23:33:40.926Z,99566.92
2018-01-18T23:36:08.527Z,99555.74
2018-01-18T23:38:36.062Z,99559.75
2018-01-18T23:41:03.670Z,99552.78
2018-01-18T23:43:31.206Z,99554.27
2018-01-18T23:45:58.754Z,99549.94
2018-01-18T23:48:26.350Z,99544.61
2018-01-18T23:50:53.929Z,99552.67
2018-01-18T23:53:21.465Z,99559.02
2018-01-18T23:55:49.002Z,99565.56
2018-01-18T23:58:16.603Z,99568.77
